createdAt,value
2023-05-15T00:10:16.732Z,14.93
2023-05-15T00:30:16.705Z,14.92
2023-05-15T00:50:16.546Z,14.91
2023-05-15T01:10:16.118Z,14.89
2023-05-15T01:30:16.095Z,14.88
2023-05-15T01:50:16.618Z,14.87
2023-05-15T02:10:16.604Z,14.86
2023-05-15T02:30:16.579Z,14.86
2023-05-15T02:50:16.592Z,14.85
2023-05-15T03:10:16.595Z,14.84
2023-05-15T03:30:16.562Z,14.81
2023-05-15T03:50:16.551Z,14.78
2023-05-15T04:10:16.533Z,14.76
2023-05-15T05:10:16.470Z,14.71
2023-05-15T05:30:16.468Z,14.68
2023-05-15T05:50:16.442Z,14.66
2023-05-15T07:50:16.351Z,14.55
2023-05-15T08:30:16.326Z,14.49
2023-05-15T08:50:16.309Z,14.46
2023-05-15T09:10:15.525Z,14.46
2023-05-15T09:30:16.283Z,14.45
2023-05-15T09:50:16.301Z,14.43
2023-05-15T10:10:16.274Z,14.4
2023-05-15T10:30:15.534Z,14.38
2023-05-15T10:50:15.716Z,14.36
2023-05-15T11:10:16.215Z,14.36
2023-05-15T11:30:16.099Z,14.36
2023-05-15T11:50:16.213Z,14.35
2023-05-15T12:10:16.205Z,14.35
2023-05-15T12:30:15.997Z,14.35
2023-05-15T12:50:16.132Z,14.36
2023-05-15T13:10:16.112Z,14.36
2023-05-15T13:50:15.558Z,14.39
2023-05-15T14:10:16.131Z,14.43
2023-05-15T14:30:16.054Z,14.45
2023-05-15T15:10:16.066Z,14.48
2023-05-15T15:30:16.015Z,14.52
2023-05-15T15:50:15.197Z,14.55
2023-05-15T16:10:15.813Z,14.56
2023-05-15T16:30:15.940Z,14.58
2023-05-15T16:50:15.992Z,14.62
2023-05-15T17:10:15.902Z,14.65
2023-05-15T17:30:15.928Z,14.66
2023-05-15T17:50:15.881Z,14.67
2023-05-15T18:10:15.897Z,14.7
2023-05-15T18:30:15.889Z,14.73
2023-05-15T18:50:15.837Z,14.75
2023-05-15T19:10:15.668Z,14.76
2023-05-15T19:30:15.803Z,14.76
2023-05-15T19:50:15.776Z,14.76
2023-05-15T20:10:15.757Z,14.77
2023-05-15T20:30:15.764Z,14.77
2023-05-15T20:50:15.723Z,14.77
2023-05-15T21:10:15.710Z,14.78
2023-05-15T21:30:15.725Z,14.78
2023-05-15T21:50:15.717Z,14.78
2023-05-15T22:10:14.899Z,14.78
2023-05-15T22:30:15.674Z,14.77
2023-05-15T23:10:15.662Z,14.77
2023-05-15T23:30:15.475Z,14.76
2023-05-15T23:50:15.590Z,14.76
